createdAt,value
2022-09-05T00:02:49.209Z,75.84
2022-09-05T00:06:02.266Z,75.94
2022-09-05T00:09:04.563Z,75.98
2022-09-05T00:11:44.875Z,76.71
2022-09-05T00:15:17.463Z,76.71
2022-09-05T00:19:28.406Z,77.00
2022-09-05T00:24:21.603Z,77.42
2022-09-05T00:24:50.281Z,77.30
2022-09-05T00:27:56.408Z,77.06
2022-09-05T00:31:51.769Z,77.18
2022-09-05T00:34:09.849Z,76.68
2022-09-05T00:36:47.837Z,76.97
2022-09-05T00:39:26.049Z,76.69
2022-09-05T00:41:57.780Z,76.80
2022-09-05T00:44:32.192Z,77.09
2022-09-05T00:47:08.433Z,77.67
2022-09-05T00:49:51.849Z,77.33
2022-09-05T00:52:43.623Z,78.06
2022-09-05T00:56:08.252Z,77.71
2022-09-05T00:59:23.925Z,77.63
2022-09-05T01:02:07.234Z,77.32
2022-09-05T01:05:02.113Z,77.34
2022-09-05T01:07:54.305Z,77.29
2022-09-05T01:11:28.368Z,77.19
2022-09-05T01:14:25.697Z,78.45
2022-09-05T01:17:39.566Z,77.43
2022-09-05T01:20:29.871Z,77.30
2022-09-05T01:23:33.922Z,77.61
2022-09-05T01:26:24.523Z,78.69
2022-09-05T01:29:40.328Z,79.11
2022-09-05T01:32:38.039Z,79.24
2022-09-05T01:35:27.981Z,79.41
2022-09-05T01:38:30.409Z,79.26
2022-09-05T01:41:21.737Z,79.74
2022-09-05T01:44:07.522Z,79.56
2022-09-05T01:46:56.032Z,79.48
2022-09-05T01:50:29.289Z,79.33
2022-09-05T01:53:09.929Z,79.03
2022-09-05T01:56:04.555Z,78.92
2022-09-05T01:58:51.592Z,79.17
2022-09-05T02:01:40.927Z,79.40
2022-09-05T02:04:24.674Z,80.29
2022-09-05T02:07:19.835Z,80.09
2022-09-05T02:10:45.124Z,80.30
2022-09-05T02:13:49.202Z,80.77
2022-09-05T02:16:43.364Z,80.60
2022-09-05T02:19:10.160Z,80.64
2022-09-05T02:21:56.597Z,80.60
2022-09-05T02:24:32.983Z,79.93
2022-09-05T02:28:04.766Z,78.91
2022-09-05T02:30:25.488Z,78.39
2022-09-05T02:33:10.902Z,78.61
2022-09-05T02:35:59.758Z,79.00
2022-09-05T02:45:02.365Z,77.40
2022-09-05T02:45:17.868Z,77.46
2022-09-05T02:46:20.764Z,78.57
2022-09-05T02:48:57.689Z,78.71
2022-09-05T02:57:26.978Z,77.86
2022-09-05T02:57:43.079Z,77.30
2022-09-05T02:58:05.950Z,77.73
2022-09-05T03:00:50.963Z,77.30
2022-09-05T03:03:54.687Z,77.84
2022-09-05T03:07:11.313Z,77.00
2022-09-05T03:10:19.267Z,77.25
2022-09-05T03:13:32.825Z,76.90
2022-09-05T03:16:36.475Z,77.19
2022-09-05T03:19:54.842Z,77.77
2022-09-05T03:22:47.681Z,77.89
2022-09-05T03:25:36.400Z,77.58
2022-09-05T03:28:35.454Z,77.92
2022-09-05T03:31:56.895Z,77.54
2022-09-05T03:35:08.459Z,77.39
2022-09-05T03:37:50.687Z,77.76
2022-09-05T03:41:03.956Z,78.54
2022-09-05T03:43:48.880Z,78.98
2022-09-05T03:46:33.748Z,78.71
2022-09-05T03:53:31.036Z,78.62
2022-09-05T03:57:06.709Z,79.16
2022-09-05T03:57:22.672Z,79.23
2022-09-05T04:03:37.869Z,79.53
2022-09-05T04:08:10.650Z,79.25
2022-09-05T04:08:17.305Z,79.68
2022-09-05T04:10:27.839Z,79.68
2022-09-05T04:13:03.568Z,79.72
2022-09-05T04:16:00.416Z,79.74
2022-09-05T04:18:42.905Z,79.56
2022-09-05T04:21:18.298Z,79.94
2022-09-05T04:24:01.680Z,79.26
2022-09-05T04:26:58.967Z,79.43
2022-09-05T04:29:40.000Z,79.92
2022-09-05T04:32:25.399Z,80.34
2022-09-05T04:35:38.333Z,79.99
2022-09-05T04:38:19.856Z,80.20
2022-09-05T04:40:57.163Z,80.33
2022-09-05T04:43:42.715Z,80.93
2022-09-05T04:46:47.405Z,81.15
2022-09-05T04:49:33.597Z,80.86
2022-09-05T04:52:31.529Z,80.60
2022-09-05T04:55:14.079Z,79.45
2022-09-05T04:58:13.609Z,79.47
2022-09-05T05:06:01.972Z,79.41
2022-09-05T05:06:14.655Z,79.48
2022-09-05T05:06:45.542Z,78.88
2022-09-05T05:09:41.182Z,79.50
2022-09-05T05:14:19.621Z,80.41
2022-09-05T05:18:15.157Z,80.77
2022-09-05T05:18:39.531Z,80.10
2022-09-05T05:21:13.080Z,79.91
2022-09-05T05:23:54.803Z,80.18
2022-09-05T05:26:43.732Z,80.33
2022-09-05T05:29:19.407Z,80.92
2022-09-05T05:31:53.745Z,80.53
2022-09-05T05:34:33.158Z,80.55
2022-09-05T05:37:38.888Z,79.72
2022-09-05T05:40:21.148Z,77.90
2022-09-05T05:42:48.416Z,76.90
2022-09-05T05:45:30.941Z,76.00
2022-09-05T05:48:27.921Z,74.41
2022-09-05T05:52:02.370Z,75.26
2022-09-05T05:54:40.696Z,75.39
2022-09-05T05:57:38.301Z,75.61
2022-09-05T06:00:55.319Z,76.44
2022-09-05T06:04:16.298Z,75.73
2022-09-05T06:07:18.656Z,74.74
2022-09-05T06:14:54.960Z,74.40
2022-09-05T06:15:08.938Z,72.45
2022-09-05T06:17:03.216Z,72.91
2022-09-05T06:22:00.602Z,70.39
2022-09-05T06:23:50.961Z,68.95
2022-09-05T06:26:26.127Z,68.59
2022-09-05T06:29:06.198Z,67.83
2022-09-05T06:32:03.258Z,66.84
2022-09-05T06:35:13.792Z,66.26
2022-09-05T06:38:18.071Z,65.15
2022-09-05T06:40:57.655Z,64.27
2022-09-05T06:44:01.314Z,64.00
2022-09-05T06:47:21.941Z,62.97
2022-09-05T06:50:28.135Z,62.74
2022-09-05T06:53:15.031Z,62.23
2022-09-05T06:56:45.287Z,63.46
2022-09-05T06:59:48.813Z,61.21
2022-09-05T07:02:59.439Z,62.25
2022-09-05T07:05:52.489Z,61.81
2022-09-05T07:08:44.289Z,60.86
2022-09-05T07:11:20.245Z,59.65
2022-09-05T07:14:24.369Z,58.99
2022-09-05T07:16:58.488Z,59.37
2022-09-05T07:19:49.509Z,58.65
2022-09-05T07:22:47.630Z,58.62
2022-09-05T07:25:20.866Z,59.31
2022-09-05T07:28:26.041Z,59.02
2022-09-05T07:30:47.706Z,59.67
2022-09-05T07:33:25.467Z,59.79
2022-09-05T07:35:53.675Z,59.51
2022-09-05T07:38:32.571Z,58.78
2022-09-05T07:41:29.333Z,59.52
2022-09-05T07:44:06.456Z,57.92
2022-09-05T07:46:38.937Z,58.04
2022-09-05T07:49:17.239Z,57.89
2022-09-05T07:56:50.124Z,56.50
2022-09-05T07:57:02.077Z,57.47
2022-09-05T07:57:51.725Z,57.96
2022-09-05T08:00:26.600Z,55.89
2022-09-05T08:03:03.171Z,55.62
2022-09-05T08:05:49.027Z,53.91
2022-09-05T08:09:21.770Z,53.40
2022-09-05T08:11:49.437Z,51.99
2022-09-05T08:14:57.531Z,51.66
2022-09-05T08:17:30.204Z,51.98
2022-09-05T08:20:18.600Z,51.69
2022-09-05T08:22:52.498Z,49.66
2022-09-05T08:25:42.881Z,49.15
2022-09-05T08:28:35.379Z,49.69
2022-09-05T08:31:19.998Z,51.20
2022-09-05T08:33:52.954Z,50.64
2022-09-05T08:36:31.925Z,51.46
2022-09-05T08:39:02.821Z,50.24
2022-09-05T08:42:19.881Z,50.03
2022-09-05T08:46:46.892Z,49.97
2022-09-05T08:48:26.612Z,51.49
2022-09-05T08:51:08.520Z,49.42
2022-09-05T08:53:59.897Z,50.49
2022-09-05T08:56:54.026Z,49.57
2022-09-05T09:00:18.606Z,50.12
2022-09-05T09:03:03.961Z,48.40
2022-09-05T09:06:18.606Z,49.45
2022-09-05T09:09:13.243Z,48.11
2022-09-05T09:12:26.303Z,47.75
2022-09-05T09:15:34.367Z,49.90
2022-09-05T09:18:12.293Z,49.08
2022-09-05T09:21:13.078Z,50.57
2022-09-05T09:23:50.282Z,49.36
2022-09-05T09:26:32.410Z,49.60
2022-09-05T09:29:07.039Z,47.98
2022-09-05T09:32:14.144Z,47.65
2022-09-05T09:34:49.271Z,48.36
2022-09-05T09:37:58.731Z,47.65
2022-09-05T09:41:17.646Z,47.55
2022-09-05T09:44:22.059Z,46.93
2022-09-05T09:46:51.367Z,48.50
2022-09-05T09:49:42.482Z,47.84
2022-09-05T09:52:36.777Z,46.94
2022-09-05T09:55:30.534Z,46.47
2022-09-05T09:58:34.182Z,46.49
2022-09-05T10:06:28.815Z,46.09
2022-09-05T10:10:38.769Z,46.04
2022-09-05T10:10:49.595Z,46.12
2022-09-05T10:12:12.863Z,45.04
2022-09-05T10:15:11.300Z,45.49
2022-09-05T10:18:13.208Z,45.76
2022-09-05T10:21:16.078Z,45.19
2022-09-05T10:24:11.458Z,44.52
2022-09-05T10:27:05.804Z,45.16
2022-09-05T10:29:52.683Z,44.18
2022-09-05T10:35:19.869Z,43.10
2022-09-05T10:35:37.242Z,43.21
2022-09-05T10:38:10.688Z,44.06
2022-09-05T10:41:20.170Z,42.12
2022-09-05T10:43:32.334Z,42.68
2022-09-05T10:46:05.296Z,41.13
2022-09-05T10:48:53.823Z,42.15
2022-09-05T10:51:38.628Z,40.95
2022-09-05T10:54:36.607Z,42.00
2022-09-05T10:57:17.795Z,41.08
2022-09-05T11:02:21.507Z,42.05
2022-09-05T11:03:00.928Z,42.14
2022-09-05T11:05:38.790Z,41.42
2022-09-05T11:08:20.437Z,41.66
2022-09-05T11:11:05.324Z,41.00
2022-09-05T11:13:46.073Z,40.53
2022-09-05T11:16:42.548Z,39.01
2022-09-05T11:19:24.413Z,38.90
2022-09-05T11:22:03.796Z,40.33
2022-09-05T11:25:02.677Z,37.80
2022-09-05T11:27:41.441Z,37.62
2022-09-05T11:30:28.690Z,39.45
2022-09-05T11:39:51.051Z,37.77
2022-09-05T11:40:10.063Z,37.26
2022-09-05T11:40:28.410Z,37.52
2022-09-05T11:43:32.295Z,37.86
2022-09-05T11:46:17.335Z,37.12
2022-09-05T11:49:16.023Z,37.07
2022-09-05T11:52:40.713Z,36.42
2022-09-05T11:55:42.266Z,36.70
2022-09-05T11:58:48.799Z,36.07
2022-09-05T12:01:43.034Z,35.72
2022-09-05T12:04:46.588Z,34.55
2022-09-05T12:07:46.801Z,34.05
2022-09-05T12:10:46.159Z,33.95
2022-09-05T12:13:36.949Z,34.63
2022-09-05T12:16:36.260Z,34.51
2022-09-05T12:19:32.872Z,34.21
2022-09-05T12:22:27.909Z,33.79
2022-09-05T12:27:35.634Z,32.61
2022-09-05T12:29:28.006Z,33.93
2022-09-05T12:33:32.661Z,33.86
2022-09-05T12:36:11.386Z,32.55
2022-09-05T12:40:28.718Z,33.27
2022-09-05T12:41:44.996Z,33.45
2022-09-05T12:44:44.851Z,33.43
2022-09-05T12:47:19.806Z,30.88
2022-09-05T12:50:14.408Z,29.81
2022-09-05T12:52:47.065Z,30.13
2022-09-05T12:55:33.305Z,28.46
2022-09-05T13:02:41.875Z,28.04
2022-09-05T13:03:15.335Z,27.93
2022-09-05T13:04:16.696Z,27.50
2022-09-05T13:06:51.042Z,26.45
2022-09-05T13:11:55.738Z,25.80
2022-09-05T13:15:02.908Z,25.14
2022-09-05T13:15:38.468Z,24.29
2022-09-05T13:18:23.477Z,24.77
2022-09-05T13:21:04.376Z,24.66
2022-09-05T13:24:12.014Z,25.44
2022-09-05T13:26:56.347Z,24.02
2022-09-05T13:32:49.982Z,23.66
2022-09-05T13:38:10.676Z,21.92
2022-09-05T13:38:17.482Z,22.83
2022-09-05T13:39:11.659Z,22.90
2022-09-05T13:41:59.380Z,22.63
2022-09-05T13:44:29.638Z,23.23
2022-09-05T13:47:30.299Z,22.52
2022-09-05T13:50:28.346Z,21.79
2022-09-05T13:53:21.340Z,22.47
2022-09-05T13:56:14.557Z,23.10
2022-09-05T13:58:56.656Z,21.59
2022-09-05T14:02:04.492Z,22.32
2022-09-05T14:05:08.417Z,21.69
2022-09-05T14:08:22.749Z,20.30
2022-09-05T14:11:24.289Z,20.80
2022-09-05T14:14:04.788Z,20.61
2022-09-05T14:20:28.703Z,17.63
2022-09-05T14:23:09.999Z,18.34
2022-09-05T14:25:45.511Z,19.13
2022-09-05T14:28:21.925Z,18.08
2022-09-05T14:37:34.392Z,21.40
2022-09-05T14:37:40.948Z,22.08
2022-09-05T14:38:01.279Z,21.29
2022-09-05T14:40:43.989Z,20.29
2022-09-05T14:44:07.738Z,19.02
2022-09-05T14:47:02.564Z,18.97
2022-09-05T14:50:01.142Z,19.22
2022-09-05T14:52:35.440Z,20.94
2022-09-05T15:02:42.187Z,21.60
2022-09-05T15:02:54.062Z,21.59
2022-09-05T15:06:35.772Z,23.69
2022-09-05T15:11:24.216Z,24.56
2022-09-05T15:12:23.313Z,21.82
2022-09-05T15:14:50.175Z,19.62
2022-09-05T15:17:23.050Z,19.19
2022-09-05T15:20:05.419Z,18.65
2022-09-05T15:22:41.842Z,18.77
2022-09-05T15:25:22.883Z,20.32
2022-09-05T15:27:50.258Z,22.69
2022-09-05T15:30:35.900Z,24.97
2022-09-05T15:33:25.208Z,29.34
2022-09-05T15:35:53.161Z,31.29
2022-09-05T15:38:55.066Z,32.61
2022-09-05T15:41:30.051Z,32.67
2022-09-05T15:44:09.825Z,33.54
2022-09-05T15:46:57.163Z,34.10
2022-09-05T15:49:38.777Z,34.07
2022-09-05T15:52:31.432Z,35.76
2022-09-05T15:55:13.809Z,35.27
2022-09-05T15:58:02.006Z,36.10
2022-09-05T16:00:52.673Z,36.96
2022-09-05T16:06:00.847Z,37.07
2022-09-05T16:10:37.854Z,36.81
2022-09-05T16:10:45.941Z,37.05
2022-09-05T16:17:35.026Z,37.67
2022-09-05T16:23:14.996Z,36.24
2022-09-05T16:23:33.325Z,37.85
2022-09-05T16:24:05.647Z,38.54
2022-09-05T16:26:50.640Z,40.01
2022-09-05T16:29:26.683Z,38.67
2022-09-05T16:31:59.660Z,40.88
2022-09-05T16:34:55.418Z,39.56
2022-09-05T16:37:39.447Z,41.47
2022-09-05T16:40:26.669Z,41.48
2022-09-05T16:43:08.133Z,42.33
2022-09-05T16:46:00.719Z,43.18
2022-09-05T16:49:00.530Z,44.38
2022-09-05T16:51:45.335Z,44.80
2022-09-05T16:54:31.943Z,44.94
2022-09-05T16:57:09.153Z,45.45
2022-09-05T16:59:41.676Z,45.28
2022-09-05T17:02:53.330Z,45.82
2022-09-05T17:05:45.947Z,46.35
2022-09-05T17:08:28.981Z,46.33
2022-09-05T17:11:12.228Z,46.26
2022-09-05T17:13:57.575Z,46.31
2022-09-05T17:16:46.670Z,46.87
2022-09-05T17:19:24.033Z,48.21
2022-09-05T17:25:54.162Z,48.74
2022-09-05T17:29:23.474Z,51.33
2022-09-05T17:29:32.962Z,50.29
2022-09-05T17:33:49.180Z,52.57
2022-09-05T17:36:41.145Z,52.29
2022-09-05T17:39:45.046Z,54.03
2022-09-05T17:42:32.526Z,54.01
2022-09-05T17:45:45.440Z,54.96
2022-09-05T17:48:16.595Z,55.56
2022-09-05T17:50:51.217Z,55.49
2022-09-05T17:53:26.513Z,56.00
2022-09-05T17:55:54.859Z,56.00
2022-09-05T17:58:48.939Z,56.10
2022-09-05T18:01:27.383Z,55.54
2022-09-05T18:04:16.476Z,55.42
2022-09-05T18:06:59.002Z,55.94
2022-09-05T18:09:39.981Z,55.85
2022-09-05T18:13:31.539Z,55.19
2022-09-05T18:15:39.437Z,54.81
2022-09-05T18:18:45.051Z,55.16
2022-09-05T18:21:12.538Z,56.07
2022-09-05T18:24:03.682Z,55.81
2022-09-05T18:26:41.140Z,55.58
2022-09-05T18:29:58.835Z,55.75
2022-09-05T18:32:53.839Z,56.24
2022-09-05T18:35:37.827Z,56.45
2022-09-05T18:38:29.554Z,56.61
2022-09-05T18:41:18.331Z,56.76
2022-09-05T18:44:19.826Z,56.98
2022-09-05T18:46:51.752Z,56.88
2022-09-05T18:50:25.335Z,57.18
2022-09-05T18:52:42.141Z,58.45
2022-09-05T18:56:09.707Z,59.04
2022-09-05T18:58:13.371Z,59.23
2022-09-05T19:00:46.779Z,61.54
2022-09-05T19:03:32.993Z,62.79
2022-09-05T19:06:36.072Z,63.26
2022-09-05T19:09:30.082Z,63.17
2022-09-05T19:12:34.869Z,63.62
2022-09-05T19:15:01.992Z,63.99
2022-09-05T19:17:38.746Z,65.49
2022-09-05T19:20:30.919Z,64.50
2022-09-05T19:23:11.606Z,64.81
2022-09-05T19:25:52.957Z,64.72
2022-09-05T19:36:43.923Z,64.39
2022-09-05T19:37:04.520Z,63.76
2022-09-05T19:37:11.015Z,63.19
2022-09-05T19:47:25.473Z,62.09
2022-09-05T19:47:39.632Z,61.41
2022-09-05T19:47:49.092Z,61.26
2022-09-05T19:48:34.365Z,61.22
2022-09-05T19:51:17.319Z,61.16
2022-09-05T19:54:05.426Z,60.57
2022-09-05T19:56:43.483Z,60.70
2022-09-05T19:59:22.979Z,60.38
2022-09-05T20:01:51.765Z,60.43
2022-09-05T20:04:20.568Z,60.39
2022-09-05T20:06:50.017Z,60.61
2022-09-05T20:09:20.763Z,61.23
2022-09-05T20:11:54.312Z,61.37
2022-09-05T20:14:24.492Z,61.28
2022-09-05T20:16:56.000Z,61.62
2022-09-05T20:19:33.941Z,61.81
2022-09-05T20:22:31.862Z,62.26
2022-09-05T20:24:55.899Z,62.63
2022-09-05T20:27:28.634Z,62.68
2022-09-05T20:30:00.366Z,62.41
2022-09-05T20:32:40.498Z,62.61
2022-09-05T20:40:03.898Z,62.87
2022-09-05T20:43:15.473Z,62.82
2022-09-05T20:43:27.221Z,62.60
2022-09-05T20:44:16.947Z,62.48
2022-09-05T20:54:05.615Z,62.14
2022-09-05T20:54:09.786Z,62.15
2022-09-05T20:54:26.937Z,62.17
2022-09-05T20:55:41.276Z,63.41
2022-09-05T20:58:10.179Z,64.01
2022-09-05T21:00:42.167Z,63.71
2022-09-05T21:03:37.343Z,63.40
2022-09-05T21:06:33.711Z,63.83
2022-09-05T21:09:24.368Z,63.53
2022-09-05T21:11:51.714Z,63.69
2022-09-05T21:14:21.012Z,64.01
2022-09-05T21:17:08.264Z,63.96
2022-09-05T21:19:53.410Z,64.54
2022-09-05T21:22:21.126Z,64.28
2022-09-05T21:25:07.342Z,64.09
2022-09-05T21:27:34.246Z,64.80
2022-09-05T21:30:40.602Z,63.96
2022-09-05T21:33:24.668Z,63.61
2022-09-05T21:36:08.990Z,63.73
2022-09-05T21:38:42.111Z,64.11
2022-09-05T21:41:09.481Z,63.83
2022-09-05T21:47:41.336Z,64.06
2022-09-05T21:47:44.755Z,64.23
2022-09-05T21:49:21.784Z,64.49
2022-09-05T21:51:50.324Z,64.42
2022-09-05T21:58:19.430Z,64.69
2022-09-05T21:59:25.433Z,65.03
2022-09-05T22:00:16.298Z,64.78
2022-09-05T22:02:46.627Z,65.14
2022-09-05T22:05:13.631Z,65.05
2022-09-05T22:07:40.583Z,64.94
2022-09-05T22:10:08.525Z,64.91
2022-09-05T22:12:38.843Z,64.83
2022-09-05T22:15:28.215Z,66.14
2022-09-05T22:18:16.701Z,66.34
2022-09-05T22:21:01.324Z,66.08
2022-09-05T22:23:36.733Z,66.48
2022-09-05T22:26:07.241Z,66.47
2022-09-05T22:28:38.567Z,66.58
2022-09-05T22:31:07.768Z,66.64
2022-09-05T22:33:35.892Z,66.66
2022-09-05T22:36:03.469Z,67.75
2022-09-05T22:38:30.467Z,68.55
2022-09-05T22:40:57.560Z,68.75
2022-09-05T22:43:25.456Z,68.85
2022-09-05T22:45:59.150Z,69.47
2022-09-05T22:48:26.025Z,69.27
2022-09-05T22:50:52.883Z,69.38
2022-09-05T22:53:19.686Z,69.46
2022-09-05T22:55:46.509Z,69.31
2022-09-05T22:58:15.000Z,68.68
2022-09-05T23:00:44.122Z,68.65
2022-09-05T23:03:10.922Z,68.83
2022-09-05T23:05:37.803Z,69.36
2022-09-05T23:08:06.411Z,68.71
2022-09-05T23:10:34.818Z,68.65
2022-09-05T23:13:10.336Z,69.12
2022-09-05T23:15:38.079Z,68.72
2022-09-05T23:18:05.857Z,68.59
2022-09-05T23:20:33.923Z,68.99
2022-09-05T23:23:05.534Z,69.08
2022-09-05T23:25:34.011Z,69.30
2022-09-05T23:28:08.961Z,69.48
2022-09-05T23:30:39.961Z,69.59
2022-09-05T23:33:08.810Z,69.27
2022-09-05T23:35:36.655Z,69.75
2022-09-05T23:38:08.910Z,70.50
2022-09-05T23:40:35.723Z,70.40
2022-09-05T23:43:02.542Z,70.46
2022-09-05T23:45:30.451Z,70.25
2022-09-05T23:47:58.774Z,70.12
2022-09-05T23:50:27.754Z,70.14
2022-09-05T23:52:54.563Z,70.68
2022-09-05T23:55:25.570Z,71.20
2022-09-05T23:57:57.811Z,70.99
